createdAt,value
2016-11-21T00:00:18.204Z,15.22
2016-11-21T00:01:28.559Z,15.23
2016-11-21T00:02:38.585Z,15.31
2016-11-21T00:03:48.962Z,15.37
2016-11-21T00:04:59.299Z,15.27
2016-11-21T00:06:09.327Z,15.34
2016-11-21T00:07:19.657Z,15.33
2016-11-21T00:08:30.035Z,15.3
2016-11-21T00:09:40.080Z,15.23
2016-11-21T00:10:50.422Z,15.23
2016-11-21T00:12:00.438Z,15.31
2016-11-21T00:13:10.776Z,15.25
2016-11-21T00:14:21.121Z,15.2
2016-11-21T00:15:31.467Z,15.25
2016-11-21T00:16:41.495Z,15.23
2016-11-21T00:17:51.211Z,15.2
2016-11-21T00:19:01.543Z,15.2
2016-11-21T00:20:11.575Z,15.15
2016-11-21T00:21:21.622Z,15.22
2016-11-21T00:22:31.649Z,15.19
2016-11-21T00:23:41.999Z,15.1
2016-11-21T00:24:52.036Z,15.15
2016-11-21T00:26:02.379Z,15.12
2016-11-21T00:27:12.705Z,15.15
2016-11-21T00:28:23.042Z,15.15
2016-11-21T00:29:33.435Z,15.18
2016-11-21T00:30:43.774Z,15.08
2016-11-21T00:31:53.809Z,15.1
2016-11-21T00:33:03.843Z,15.1
2016-11-21T00:34:13.865Z,15.1
2016-11-21T00:35:24.216Z,15.1
2016-11-21T00:36:34.574Z,15.07
2016-11-21T00:37:44.920Z,15.1
2016-11-21T00:38:54.961Z,15
2016-11-21T00:40:04.990Z,15.01
2016-11-21T00:41:15.325Z,15
2016-11-21T00:42:25.707Z,15
2016-11-21T00:43:36.043Z,15.01
2016-11-21T00:44:46.075Z,15
2016-11-21T00:45:56.402Z,15
2016-11-21T00:47:06.753Z,15.01
2016-11-21T00:48:16.770Z,14.87
2016-11-21T00:49:27.124Z,14.86
2016-11-21T00:50:36.836Z,14.89
2016-11-21T00:51:46.871Z,14.87
2016-11-21T00:52:57.221Z,14.93
2016-11-21T00:54:07.257Z,14.86
2016-11-21T00:55:17.605Z,14.9
2016-11-21T00:56:27.948Z,14.85
2016-11-21T00:57:37.971Z,15.04
2016-11-21T00:58:48.311Z,14.98
2016-11-21T00:59:58.653Z,14.94
2016-11-21T01:01:09.000Z,14.98
2016-11-21T01:02:19.316Z,15
2016-11-21T01:03:29.647Z,15.01
2016-11-21T01:04:39.680Z,15.08
2016-11-21T01:05:50.028Z,15.08
2016-11-21T01:07:00.382Z,15.05
2016-11-21T01:08:10.720Z,15.12
2016-11-21T01:09:20.446Z,15.07
2016-11-21T01:10:30.478Z,15.05
2016-11-21T01:11:40.521Z,15.16
2016-11-21T01:12:50.577Z,15.15
2016-11-21T01:14:00.608Z,15.12
2016-11-21T01:15:10.643Z,15.12
2016-11-21T01:16:20.657Z,15.12
2016-11-21T01:17:30.722Z,15.16
2016-11-21T01:18:40.437Z,15.12
2016-11-21T01:19:50.162Z,15.13
2016-11-21T01:20:59.874Z,15.1
2016-11-21T01:22:09.920Z,15.08
2016-11-21T01:23:20.294Z,15.07
2016-11-21T01:24:30.351Z,15.07
2016-11-21T01:25:40.376Z,15.04
2016-11-21T01:26:50.394Z,15.08
2016-11-21T01:28:00.734Z,15.07
2016-11-21T01:29:11.092Z,15.1
2016-11-21T01:30:21.435Z,15.01
2016-11-21T01:31:31.767Z,14.98
2016-11-21T01:32:41.782Z,14.97
2016-11-21T01:33:52.123Z,14.9
2016-11-21T01:35:02.498Z,14.86
2016-11-21T01:36:12.840Z,14.9
2016-11-21T01:37:23.183Z,14.86
2016-11-21T01:38:33.524Z,14.93
2016-11-21T01:39:43.856Z,14.9
2016-11-21T01:40:53.890Z,14.86
2016-11-21T01:42:03.924Z,14.79
2016-11-21T01:43:13.949Z,14.79
2016-11-21T01:44:24.304Z,14.79
2016-11-21T01:45:34.345Z,14.67
2016-11-21T01:46:44.687Z,14.66
2016-11-21T01:47:55.031Z,14.64
2016-11-21T01:49:05.361Z,14.66
2016-11-21T01:50:15.421Z,14.61
2016-11-21T01:51:25.740Z,14.59
2016-11-21T01:52:36.097Z,14.48
2016-11-21T01:53:46.437Z,14.56
2016-11-21T01:54:56.774Z,14.49
2016-11-21T01:56:07.137Z,14.45
2016-11-21T01:57:17.467Z,14.57
2016-11-21T01:58:27.800Z,14.49
2016-11-21T01:59:38.162Z,14.49
2016-11-21T02:00:48.490Z,14.39
2016-11-21T02:01:58.539Z,14.45
2016-11-21T02:03:08.261Z,14.38
2016-11-21T02:04:18.583Z,14.28
2016-11-21T02:05:28.648Z,14.36
2016-11-21T02:06:38.681Z,14.27
2016-11-21T02:07:49.038Z,14.28
2016-11-21T02:08:59.361Z,14.3
2016-11-21T02:10:09.692Z,14.24
2016-11-21T02:11:19.393Z,14.21
2016-11-21T02:12:29.112Z,14.15
2016-11-21T02:13:39.453Z,14.19
2016-11-21T02:14:49.796Z,14.19
2016-11-21T02:16:00.140Z,14.06
2016-11-21T02:17:10.488Z,14.15
2016-11-21T02:18:20.819Z,14.08
2016-11-21T02:19:31.156Z,14.05
2016-11-21T02:20:41.175Z,14.09
2016-11-21T02:21:51.518Z,14.08
2016-11-21T02:23:01.561Z,13.93
2016-11-21T02:24:11.903Z,13.97
2016-11-21T02:25:22.236Z,14.02
2016-11-21T02:26:32.585Z,13.97
2016-11-21T02:27:42.915Z,13.9
2016-11-21T02:28:53.244Z,13.97
2016-11-21T02:30:03.576Z,13.84
2016-11-21T02:31:13.602Z,13.86
2016-11-21T02:32:23.320Z,13.86
2016-11-21T02:33:33.351Z,13.83
2016-11-21T02:34:43.049Z,13.84
2016-11-21T02:35:53.383Z,13.83
2016-11-21T02:37:03.426Z,13.78
2016-11-21T02:38:13.755Z,13.76
2016-11-21T02:39:23.775Z,13.73
2016-11-21T02:40:33.801Z,13.76
2016-11-21T02:41:43.843Z,13.75
2016-11-21T02:42:54.189Z,13.72
2016-11-21T02:44:04.226Z,13.73
2016-11-21T02:45:14.568Z,13.7
2016-11-21T02:46:24.604Z,13.72
2016-11-21T02:47:34.961Z,13.75
2016-11-21T02:48:45.287Z,13.72
2016-11-21T02:49:55.625Z,13.7
2016-11-21T02:51:05.951Z,13.75
2016-11-21T02:52:15.969Z,13.72
2016-11-21T02:53:26.303Z,13.73
2016-11-21T02:54:36.639Z,13.75
2016-11-21T02:55:46.964Z,13.69
2016-11-21T02:56:57.289Z,13.69
2016-11-21T02:58:07.626Z,13.72
2016-11-21T02:59:17.650Z,13.68
2016-11-21T03:00:27.376Z,13.66
2016-11-21T03:32:38.353Z,10.92
2016-11-21T03:33:48.679Z,11.02
2016-11-21T03:34:58.990Z,11.05
2016-11-21T03:36:09.002Z,11.16
2016-11-21T03:37:19.353Z,11.18
2016-11-21T03:38:29.691Z,11.33
2016-11-21T03:39:39.732Z,11.45
2016-11-21T03:40:49.745Z,11.66
2016-11-21T03:42:00.080Z,11.78
2016-11-21T03:43:10.398Z,11.91
2016-11-21T03:44:20.411Z,11.98
2016-11-21T03:45:30.741Z,12.18
2016-11-21T03:46:41.072Z,12.33
2016-11-21T03:47:51.093Z,12.44
2016-11-21T03:49:01.116Z,12.53
2016-11-21T03:50:11.148Z,12.61
2016-11-21T03:51:21.488Z,12.7
2016-11-21T03:52:31.821Z,12.81
2016-11-21T03:53:41.543Z,12.81
2016-11-21T03:54:51.260Z,12.95
2016-11-21T03:56:01.285Z,13.13
2016-11-21T03:57:11.632Z,13.1
2016-11-21T03:58:21.660Z,13.19
2016-11-21T03:59:31.995Z,13.25
2016-11-21T04:00:42.023Z,13.31
2016-11-21T04:01:52.053Z,13.29
2016-11-21T04:03:02.388Z,13.32
2016-11-21T04:04:12.718Z,13.37
2016-11-21T04:05:22.745Z,13.36
2016-11-21T04:06:33.091Z,13.47
2016-11-21T04:07:43.118Z,13.47
2016-11-21T04:08:53.455Z,13.58
2016-11-21T04:10:03.816Z,13.53
2016-11-21T04:11:13.829Z,13.55
2016-11-21T04:12:23.839Z,13.51
2016-11-21T04:13:34.196Z,13.44
2016-11-21T04:14:44.540Z,13.5
2016-11-21T04:15:54.867Z,13.58
2016-11-21T04:17:05.191Z,13.54
2016-11-21T04:18:14.899Z,13.55
2016-11-21T04:19:25.235Z,13.5
2016-11-21T04:20:35.577Z,13.6
2016-11-21T04:21:45.923Z,13.55
2016-11-21T04:22:55.942Z,13.5
2016-11-21T04:24:06.291Z,13.54
2016-11-21T04:25:16.624Z,13.42
2016-11-21T04:26:26.951Z,13.5
2016-11-21T04:27:37.269Z,13.6
2016-11-21T04:28:47.617Z,13.55
2016-11-21T04:29:57.639Z,13.57
2016-11-21T04:31:07.991Z,13.47
2016-11-21T04:32:18.014Z,13.54
2016-11-21T04:33:28.025Z,13.47
2016-11-21T04:34:38.367Z,13.54
2016-11-21T04:35:48.705Z,13.57
2016-11-21T04:36:59.039Z,13.53
2016-11-21T04:38:09.385Z,13.57
2016-11-21T04:39:19.728Z,13.53
2016-11-21T04:40:30.070Z,13.53
2016-11-21T04:41:40.097Z,13.6
2016-11-21T04:42:50.126Z,13.57
2016-11-21T04:44:00.456Z,13.53
2016-11-21T04:45:10.473Z,13.51
2016-11-21T04:46:20.818Z,13.55
2016-11-21T04:47:31.165Z,13.48
2016-11-21T04:48:41.501Z,13.48
2016-11-21T04:49:51.842Z,13.5
2016-11-21T04:51:01.892Z,13.42
2016-11-21T04:52:11.921Z,13.4
2016-11-21T04:53:22.260Z,13.36
2016-11-21T04:54:32.284Z,13.4
2016-11-21T04:55:42.624Z,13.39
2016-11-21T04:56:53.009Z,13.39
2016-11-21T04:58:03.051Z,13.35
2016-11-21T04:59:13.373Z,13.36
2016-11-21T05:00:23.734Z,13.36
2016-11-21T05:01:34.067Z,13.28
2016-11-21T05:02:44.098Z,13.24
2016-11-21T05:03:54.449Z,13.28
2016-11-21T05:05:04.716Z,13.32
2016-11-21T05:06:15.049Z,13.24
2016-11-21T05:07:25.065Z,13.19
2016-11-21T05:08:35.081Z,13.17
2016-11-21T05:09:45.108Z,13.17
2016-11-21T05:10:55.436Z,13.17
2016-11-21T05:12:06.023Z,13.19
2016-11-21T05:13:16.349Z,13.13
2016-11-21T05:14:26.378Z,13.14
2016-11-21T05:15:36.716Z,13.14
2016-11-21T05:16:47.052Z,13.1
2016-11-21T05:17:57.385Z,13.09
2016-11-21T05:19:07.720Z,13.06
2016-11-21T05:20:18.093Z,13.07
2016-11-21T05:21:28.441Z,13.09
2016-11-21T05:22:38.786Z,13.07
2016-11-21T05:23:49.127Z,13.09
2016-11-21T05:24:59.459Z,13.09
2016-11-21T05:26:09.795Z,13.06
2016-11-21T05:27:20.153Z,13.01
2016-11-21T05:28:29.855Z,13.02
2016-11-21T05:29:40.190Z,13.06
2016-11-21T05:30:50.513Z,13.07
2016-11-21T05:31:59.905Z,13.06
2016-11-21T05:33:09.921Z,13.01
2016-11-21T05:34:19.943Z,13.03
2016-11-21T05:35:29.655Z,13.1
2016-11-21T05:36:40.000Z,13.03
2016-11-21T05:37:50.025Z,13.02
2016-11-21T05:39:00.358Z,13.11
2016-11-21T05:40:10.378Z,13.03
2016-11-21T05:41:20.742Z,13.01
2016-11-21T05:42:31.080Z,12.98
2016-11-21T05:43:41.450Z,13.03
2016-11-21T05:44:51.791Z,12.98
2016-11-21T05:46:02.119Z,12.98
2016-11-21T05:47:12.458Z,12.98
2016-11-21T05:48:22.803Z,12.95
2016-11-21T05:49:33.170Z,12.98
2016-11-21T05:50:43.511Z,12.99
2016-11-21T05:51:53.848Z,13.01
2016-11-21T05:53:04.194Z,12.91
2016-11-21T05:54:14.213Z,13.02
2016-11-21T05:55:24.253Z,13.06
2016-11-21T05:56:33.964Z,12.91
2016-11-21T05:57:43.690Z,12.96
2016-11-21T05:58:53.708Z,12.98
2016-11-21T06:00:04.056Z,12.98
2016-11-21T06:01:14.391Z,13.01
2016-11-21T06:02:24.408Z,12.98
2016-11-21T06:03:34.745Z,12.96
2016-11-21T06:04:45.082Z,12.98
2016-11-21T06:05:55.418Z,12.98
2016-11-21T06:07:05.773Z,13.01
2016-11-21T06:08:15.796Z,13.02
2016-11-21T06:09:25.823Z,13.06
2016-11-21T06:10:36.150Z,12.99
2016-11-21T06:11:45.871Z,12.91
2016-11-21T06:12:56.215Z,12.98
2016-11-21T06:14:06.240Z,12.91
2016-11-21T06:15:16.612Z,12.91
2016-11-21T06:16:26.654Z,12.92
2016-11-21T06:17:36.981Z,13.02
2016-11-21T06:18:47.302Z,12.95
2016-11-21T06:19:57.328Z,12.88
2016-11-21T06:21:07.660Z,13.03
2016-11-21T06:22:17.991Z,12.99
2016-11-21T06:23:28.354Z,13.01
2016-11-21T06:24:38.385Z,12.95
2016-11-21T06:25:48.417Z,13.01
2016-11-21T06:26:58.439Z,13.03
2016-11-21T06:28:08.141Z,12.98
2016-11-21T06:29:18.477Z,13.02
2016-11-21T06:30:28.494Z,13.13
2016-11-21T06:31:38.831Z,13.09
2016-11-21T06:32:49.197Z,13.11
2016-11-21T06:33:59.219Z,13.1
2016-11-21T06:35:08.925Z,13.16
2016-11-21T06:36:18.933Z,13.25
2016-11-21T06:37:28.634Z,13.29
2016-11-21T06:38:38.357Z,13.36
2016-11-21T06:39:48.693Z,13.44
2016-11-21T06:40:59.039Z,13.36
2016-11-21T06:42:09.088Z,13.47
2016-11-21T06:43:19.413Z,13.48
2016-11-21T06:44:29.449Z,13.53
2016-11-21T06:45:39.460Z,13.54
2016-11-21T06:46:49.798Z,13.62
2016-11-21T06:48:00.136Z,13.58
2016-11-21T06:49:10.472Z,13.65
2016-11-21T06:50:20.493Z,13.66
2016-11-21T06:51:30.833Z,13.69
2016-11-21T06:52:41.186Z,13.76
2016-11-21T06:53:51.203Z,13.84
2016-11-21T06:55:01.532Z,13.91
2016-11-21T06:56:11.556Z,13.97
2016-11-21T06:57:21.902Z,14.02
2016-11-21T06:58:32.238Z,14.12
2016-11-21T06:59:42.570Z,14.16
2016-11-21T07:00:52.590Z,14.23
2016-11-21T07:02:02.912Z,14.27
2016-11-21T07:03:13.233Z,14.19
2016-11-21T07:04:23.570Z,14.26
2016-11-21T07:05:33.911Z,14.33
2016-11-21T07:06:44.247Z,14.34
2016-11-21T07:07:54.595Z,14.44
2016-11-21T07:09:04.625Z,14.36
2016-11-21T07:10:14.977Z,14.36
2016-11-21T07:11:25.304Z,14.41
2016-11-21T07:12:35.625Z,14.49
2016-11-21T07:13:45.662Z,14.57
2016-11-21T07:14:55.398Z,14.59
2016-11-21T07:16:05.736Z,14.56
2016-11-21T07:17:15.778Z,14.7
2016-11-21T07:18:26.109Z,14.7
2016-11-21T07:19:36.446Z,14.74
2016-11-21T07:20:46.483Z,14.8
2016-11-21T07:21:56.836Z,14.8
2016-11-21T07:23:07.176Z,14.83
2016-11-21T07:24:17.202Z,14.79
2016-11-21T07:25:27.222Z,14.77
2016-11-21T07:26:37.566Z,14.74
2016-11-21T07:27:47.923Z,14.89
2016-11-21T07:28:58.250Z,14.9
2016-11-21T07:30:08.590Z,15.04
2016-11-21T07:31:18.938Z,15.07
2016-11-21T07:32:28.973Z,15.07
2016-11-21T07:33:38.992Z,15.15
2016-11-21T07:34:49.324Z,15.12
2016-11-21T07:35:59.709Z,15.08
2016-11-21T07:37:09.731Z,15.1
2016-11-21T07:38:20.087Z,15.18
2016-11-21T07:39:30.424Z,15.16
2016-11-21T07:40:40.450Z,15.26
2016-11-21T07:41:50.167Z,15.25
2016-11-21T07:43:00.504Z,15.26
2016-11-21T07:44:10.851Z,15.16
2016-11-21T07:45:20.878Z,15.33
2016-11-21T07:46:31.224Z,15.37
2016-11-21T07:47:41.566Z,15.43
2016-11-21T07:48:51.909Z,15.43
2016-11-21T07:50:02.239Z,15.52
2016-11-21T07:51:12.582Z,15.44
2016-11-21T07:52:22.909Z,15.53
2016-11-21T07:53:33.244Z,15.51
2016-11-21T07:54:43.261Z,15.53
2016-11-21T07:55:53.594Z,15.6
2016-11-21T07:57:03.315Z,15.56
2016-11-21T07:58:13.361Z,15.58
2016-11-21T07:59:23.380Z,15.58
2016-11-21T08:00:33.101Z,15.56
2016-11-21T08:01:43.132Z,15.51
2016-11-21T08:02:53.497Z,15.59
2016-11-21T08:04:03.514Z,15.63
2016-11-21T08:05:13.853Z,15.68
2016-11-21T08:06:23.898Z,15.65
2016-11-21T08:07:34.235Z,15.78
2016-11-21T08:08:44.253Z,15.74
2016-11-21T08:09:54.575Z,15.75
2016-11-21T08:11:04.611Z,15.8
2016-11-21T08:12:14.646Z,15.83
2016-11-21T08:13:24.672Z,15.89
2016-11-21T08:14:35.010Z,15.86
2016-11-21T08:15:45.038Z,15.88
2016-11-21T08:16:55.368Z,15.92
2016-11-21T08:18:05.391Z,15.92
2016-11-21T08:19:15.424Z,15.98
2016-11-21T08:20:25.785Z,15.99
2016-11-21T08:21:35.809Z,15.92
2016-11-21T08:22:46.149Z,15.8
2016-11-21T08:23:56.495Z,15.86
2016-11-21T08:25:06.516Z,15.92
2016-11-21T08:26:16.543Z,15.93
2016-11-21T08:27:26.864Z,15.89
2016-11-21T08:28:37.192Z,15.84
2016-11-21T08:29:47.534Z,15.92
2016-11-21T08:30:57.870Z,15.81
2016-11-21T08:32:07.911Z,15.92
2016-11-21T08:33:18.253Z,15.86
2016-11-21T08:34:28.276Z,15.95
2016-11-21T08:35:38.304Z,16
2016-11-21T08:36:48.652Z,16.14
2016-11-21T08:37:58.683Z,16.21
2016-11-21T08:39:09.016Z,16.29
2016-11-21T08:40:19.043Z,16.4
2016-11-21T08:41:29.368Z,16.37
2016-11-21T08:42:39.712Z,16.27
2016-11-21T08:43:50.045Z,16.42
2016-11-21T08:45:00.070Z,16.36
2016-11-21T08:46:10.112Z,16.37
2016-11-21T08:47:20.140Z,16.39
2016-11-21T08:48:30.527Z,16.44
2016-11-21T08:49:40.878Z,16.44
2016-11-21T08:50:51.233Z,16.63
2016-11-21T08:52:01.574Z,16.57
2016-11-21T08:53:11.927Z,16.47
2016-11-21T08:54:22.264Z,16.59
2016-11-21T08:55:32.626Z,16.65
2016-11-21T08:56:42.999Z,16.69
2016-11-21T08:57:53.340Z,16.73
2016-11-21T08:59:03.680Z,16.77
2016-11-21T09:00:14.017Z,16.77
2016-11-21T09:01:24.374Z,16.94
2016-11-21T09:02:34.737Z,17
2016-11-21T09:03:44.772Z,16.99
2016-11-21T09:04:55.113Z,16.94
2016-11-21T09:06:05.477Z,17.03
2016-11-21T09:07:15.503Z,17.02
2016-11-21T09:08:25.893Z,17.06
2016-11-21T09:09:36.297Z,17.1
2016-11-21T09:10:46.714Z,17.2
2016-11-21T09:11:57.124Z,17.25
2016-11-21T09:13:07.522Z,17.25
2016-11-21T09:14:17.608Z,17.25
2016-11-21T09:15:28.038Z,17.69
2016-11-21T09:16:38.412Z,18.11
2016-11-21T09:17:48.548Z,18.34
2016-11-21T09:18:58.980Z,19.12
2016-11-21T09:20:08.755Z,19.72
2016-11-21T09:21:19.120Z,19.8
2016-11-21T09:22:29.279Z,19.4
2016-11-21T09:23:39.688Z,19.05
2016-11-21T09:24:50.081Z,18.81
2016-11-21T09:26:00.447Z,18.59
2016-11-21T09:27:10.827Z,18.45
2016-11-21T09:28:20.865Z,18.42
2016-11-21T09:29:30.941Z,18.32
2016-11-21T09:30:41.312Z,18.27
2016-11-21T09:31:51.348Z,18.31
2016-11-21T09:33:01.708Z,18.13
2016-11-21T09:34:12.052Z,18.2
2016-11-21T09:35:22.404Z,18.2
2016-11-21T09:36:32.452Z,18.16
2016-11-21T09:37:42.536Z,18.17
2016-11-21T09:38:52.878Z,18.16
2016-11-21T09:40:03.276Z,18.19
2016-11-21T09:41:13.644Z,18.14
2016-11-21T09:42:23.724Z,18.08
2016-11-21T09:43:34.072Z,18.2
2016-11-21T09:44:44.450Z,18.1
2016-11-21T09:45:54.857Z,18.31
2016-11-21T09:47:04.954Z,18.19
2016-11-21T09:48:15.315Z,18.17
2016-11-21T09:49:25.712Z,18.16
2016-11-21T09:50:36.121Z,18.17
2016-11-21T09:51:46.529Z,18.31
2016-11-21T09:52:56.659Z,18.26
2016-11-21T09:54:07.025Z,18.36
2016-11-21T09:55:17.383Z,18.42
2016-11-21T09:56:27.424Z,18.39
2016-11-21T09:57:37.801Z,18.45
2016-11-21T09:58:48.225Z,18.45
2016-11-21T09:59:58.616Z,18.42
2016-11-21T10:01:08.941Z,18.49
2016-11-21T10:02:19.327Z,18.54
2016-11-21T10:03:30.030Z,18.5
2016-11-21T10:04:40.427Z,18.54
2016-11-21T10:05:50.898Z,18.6
2016-11-21T10:09:33.722Z,18.63
2016-11-21T10:10:43.849Z,18.72
2016-11-21T10:11:54.236Z,18.74
2016-11-21T10:13:04.738Z,18.75
2016-11-21T10:14:14.836Z,18.79
2016-11-21T10:15:25.223Z,18.76
2016-11-21T10:16:35.612Z,18.79
2016-11-21T10:17:46.001Z,18.78
2016-11-21T10:18:56.408Z,18.81
2016-11-21T10:20:06.480Z,18.78
2016-11-21T10:21:16.527Z,18.9
2016-11-21T10:22:26.587Z,18.87
2016-11-21T10:23:36.949Z,18.87
2016-11-21T10:24:47.327Z,18.9
2016-11-21T10:25:57.713Z,18.9
2016-11-21T10:27:08.102Z,18.89
2016-11-21T10:28:18.476Z,18.94
2016-11-21T10:29:28.562Z,18.93
2016-11-21T10:30:38.626Z,18.94
2016-11-21T10:31:49.013Z,18.91
2016-11-21T10:32:59.080Z,18.91
2016-11-21T10:34:09.474Z,18.94
2016-11-21T10:35:19.539Z,18.96
2016-11-21T10:36:29.932Z,18.9
2016-11-21T10:37:40.542Z,18.84
2016-11-21T10:38:50.966Z,18.97
2016-11-21T10:40:01.058Z,18.96
2016-11-21T10:41:11.446Z,19.06
2016-11-21T10:42:21.858Z,18.94
2016-11-21T10:43:32.243Z,18.94
2016-11-21T10:44:42.635Z,18.97
2016-11-21T10:45:53.014Z,19
2016-11-21T10:47:03.391Z,19.24
2016-11-21T10:48:13.786Z,19.4
2016-11-21T10:49:24.155Z,19.46
2016-11-21T10:50:34.528Z,19.45
2016-11-21T10:51:44.606Z,19.6
2016-11-21T10:52:54.705Z,19.63
2016-11-21T10:54:05.091Z,19.67
2016-11-21T10:55:15.446Z,19.6
2016-11-21T10:56:25.826Z,19.67
2016-11-21T10:57:36.236Z,19.7
2016-11-21T10:58:46.654Z,19.72
2016-11-21T10:59:57.011Z,19.71
2016-11-21T11:01:07.420Z,19.86
2016-11-21T11:02:17.802Z,19.85
2016-11-21T11:03:28.189Z,19.86
2016-11-21T11:04:38.584Z,19.9
2016-11-21T11:05:48.638Z,19.95
2016-11-21T11:06:59.067Z,20.04
2016-11-21T11:08:09.133Z,19.95
2016-11-21T11:09:19.743Z,19.93
2016-11-21T11:10:30.120Z,19.98
2016-11-21T11:11:40.519Z,20.01
2016-11-21T11:12:50.887Z,19.98
2016-11-21T11:14:01.277Z,19.97
2016-11-21T11:15:11.369Z,20.05
2016-11-21T11:16:22.088Z,20.02
2016-11-21T11:17:32.474Z,20.12
2016-11-21T11:18:42.223Z,20.1
2016-11-21T11:19:52.587Z,20.15
2016-11-21T11:21:02.655Z,20.12
2016-11-21T11:22:13.046Z,20.11
2016-11-21T11:23:23.120Z,20.05
2016-11-21T11:24:33.490Z,20.07
2016-11-21T11:25:43.856Z,20.16
2016-11-21T11:26:54.483Z,20.18
2016-11-21T11:28:04.881Z,20.18
2016-11-21T11:29:15.252Z,20.16
2016-11-21T11:30:25.322Z,20.23
2016-11-21T11:31:35.717Z,20.19
2016-11-21T11:32:46.019Z,20.23
2016-11-21T11:33:56.389Z,20.25
2016-11-21T11:35:06.495Z,20.29
2016-11-21T11:36:16.875Z,20.29
2016-11-21T11:37:26.609Z,20.23
2016-11-21T11:38:36.993Z,20.25
2016-11-21T11:39:47.377Z,20.42
2016-11-21T11:40:57.448Z,20.35
2016-11-21T11:42:07.484Z,20.38
2016-11-21T11:43:17.860Z,20.35
2016-11-21T11:44:28.222Z,20.44
2016-11-21T11:45:38.574Z,20.48
2016-11-21T11:46:48.959Z,20.48
2016-11-21T11:47:59.352Z,20.44
2016-11-21T11:49:09.728Z,20.42
2016-11-21T11:50:20.125Z,20.4
2016-11-21T11:51:30.186Z,20.48
2016-11-21T11:52:40.565Z,20.51
2016-11-21T11:53:50.647Z,20.51
2016-11-21T11:55:01.079Z,20.49
2016-11-21T11:56:11.463Z,20.58
2016-11-21T11:57:22.078Z,20.53
2016-11-21T11:58:32.177Z,20.57
2016-11-21T11:59:42.254Z,20.67
2016-11-21T12:00:52.571Z,20.6
2016-11-21T12:02:02.941Z,20.61
2016-11-21T12:03:13.315Z,20.66
2016-11-21T12:04:23.676Z,20.67
2016-11-21T12:05:34.304Z,20.71
2016-11-21T12:06:44.931Z,20.79
2016-11-21T12:07:54.976Z,20.75
2016-11-21T12:09:05.114Z,20.76
2016-11-21T12:10:15.531Z,20.79
2016-11-21T12:11:25.584Z,20.82
2016-11-21T12:12:36.086Z,20.86
2016-11-21T12:13:46.156Z,20.85
2016-11-21T12:14:55.904Z,20.97
2016-11-21T12:16:06.307Z,20.94
2016-11-21T12:17:16.685Z,20.93
2016-11-21T12:18:27.104Z,20.93
2016-11-21T12:19:37.482Z,20.93
2016-11-21T12:20:47.876Z,21.01
2016-11-21T12:21:58.233Z,21
2016-11-21T12:23:08.640Z,21.18
2016-11-21T12:24:18.995Z,21.58
2016-11-21T12:25:28.771Z,22.26
2016-11-21T12:26:38.833Z,23.22
2016-11-21T12:27:49.282Z,24
2016-11-21T12:28:59.020Z,23.6
2016-11-21T12:30:09.412Z,22.91
2016-11-21T12:31:19.845Z,22.41
2016-11-21T12:32:29.586Z,22.3
2016-11-21T12:33:39.965Z,22.94
2016-11-21T12:34:50.341Z,23.96
2016-11-21T12:36:00.713Z,24.64
2016-11-21T12:37:11.104Z,25.05
2016-11-21T12:38:21.466Z,25.44
2016-11-21T12:39:31.526Z,25.71
2016-11-21T12:40:41.588Z,25.39
2016-11-21T12:41:51.976Z,24.34
2016-11-21T12:43:02.591Z,23.48
2016-11-21T12:44:12.966Z,22.97
2016-11-21T12:45:23.046Z,22.52
2016-11-21T12:46:33.443Z,22.22
2016-11-21T12:47:43.812Z,21.86
2016-11-21T12:48:54.100Z,21.61
2016-11-21T12:50:04.156Z,21.53
2016-11-21T12:51:14.540Z,21.36
2016-11-21T12:52:24.948Z,21.15
2016-11-21T12:53:35.345Z,21.09
2016-11-21T12:54:45.718Z,21
2016-11-21T12:55:56.110Z,20.91
2016-11-21T12:57:06.164Z,20.85
2016-11-21T12:58:16.547Z,20.75
2016-11-21T12:59:26.950Z,20.72
2016-11-21T13:00:37.362Z,20.71
2016-11-21T13:01:47.737Z,20.6
2016-11-21T13:02:58.106Z,20.56
2016-11-21T13:04:08.509Z,20.51
2016-11-21T13:05:18.886Z,20.53
2016-11-21T13:06:29.271Z,20.42
2016-11-21T13:07:39.634Z,20.38
2016-11-21T13:08:49.704Z,20.37
2016-11-21T13:10:00.085Z,20.35
2016-11-21T13:11:10.145Z,20.29
2016-11-21T13:12:20.524Z,20.3
2016-11-21T13:13:30.893Z,20.26
2016-11-21T13:14:41.288Z,20.22
2016-11-21T13:15:51.651Z,20.2
2016-11-21T13:17:01.693Z,20.25
2016-11-21T13:18:12.080Z,20.07
2016-11-21T13:19:22.498Z,20.15
2016-11-21T13:20:32.591Z,20.02
2016-11-21T13:21:42.344Z,19.98
2016-11-21T13:22:52.715Z,20.01
2016-11-21T13:24:03.091Z,20.07
2016-11-21T13:25:13.194Z,20.11
2016-11-21T13:26:23.263Z,20
2016-11-21T13:27:33.331Z,20.02
2016-11-21T13:28:43.717Z,20.04
2016-11-21T13:29:53.785Z,19.98
2016-11-21T13:31:04.190Z,19.97
2016-11-21T13:32:14.266Z,20
2016-11-21T13:33:24.695Z,19.83
2016-11-21T13:34:35.088Z,19.83
2016-11-21T13:35:45.484Z,19.82
2016-11-21T13:36:55.855Z,19.87
2016-11-21T13:38:06.289Z,19.83
2016-11-21T13:39:16.389Z,19.82
2016-11-21T13:40:26.768Z,19.8
2016-11-21T13:41:37.208Z,19.79
2016-11-21T13:42:47.595Z,19.79
2016-11-21T13:43:57.973Z,19.79
2016-11-21T13:45:08.356Z,19.74
2016-11-21T13:46:18.807Z,19.74
2016-11-21T13:47:29.212Z,19.64
2016-11-21T13:48:39.617Z,19.78
2016-11-21T13:49:50.053Z,19.64
2016-11-21T13:51:00.449Z,19.63
2016-11-21T13:52:10.832Z,19.67
2016-11-21T13:53:21.209Z,19.61
2016-11-21T13:54:31.582Z,19.57
2016-11-21T13:55:41.975Z,19.52
2016-11-21T13:56:52.365Z,19.55
2016-11-21T13:58:02.763Z,19.43
2016-11-21T13:59:13.113Z,19.45
2016-11-21T14:00:23.181Z,19.38
2016-11-21T14:01:33.570Z,19.42
2016-11-21T14:02:43.922Z,19.32
2016-11-21T14:03:54.316Z,19.31
2016-11-21T14:05:04.739Z,19.2
2016-11-21T14:06:15.155Z,19.24
2016-11-21T14:07:25.521Z,19.15
2016-11-21T14:08:35.581Z,19.06
2016-11-21T14:09:45.963Z,19.1
2016-11-21T14:10:56.348Z,19.05
2016-11-21T14:12:06.457Z,18.97
2016-11-21T14:13:16.842Z,18.94
2016-11-21T14:14:27.252Z,18.86
2016-11-21T14:15:37.621Z,18.79
2016-11-21T14:16:47.414Z,18.87
2016-11-21T14:17:57.773Z,18.79
2016-11-21T14:19:08.193Z,18.84
2016-11-21T14:20:18.574Z,18.69
2016-11-21T14:21:28.938Z,18.6
2016-11-21T14:22:39.327Z,18.5
2016-11-21T14:23:49.702Z,18.47
2016-11-21T14:24:59.443Z,18.44
2016-11-21T14:26:09.791Z,18.47
2016-11-21T14:27:20.117Z,18.34
2016-11-21T14:28:30.442Z,18.26
2016-11-21T14:29:40.791Z,18.16
2016-11-21T14:30:50.898Z,18.17
2016-11-21T14:32:01.249Z,18.16
2016-11-21T14:33:11.590Z,18.2
2016-11-21T14:34:21.686Z,18.11
2016-11-21T14:35:32.012Z,18.1
2016-11-21T14:36:42.373Z,18.03
2016-11-21T14:37:52.709Z,17.94
2016-11-21T14:39:03.074Z,17.88
2016-11-21T14:40:13.408Z,17.88
2016-11-21T14:41:23.763Z,17.74
2016-11-21T14:42:34.123Z,17.74
2016-11-21T14:43:44.157Z,17.71
2016-11-21T14:44:54.175Z,17.65
2016-11-21T14:46:04.228Z,17.69
2016-11-21T14:47:14.245Z,17.54
2016-11-21T14:48:24.259Z,17.57
2016-11-21T14:49:34.597Z,17.54
2016-11-21T14:50:44.933Z,17.52
2016-11-21T14:51:55.257Z,17.52
2016-11-21T14:53:05.598Z,17.46
2016-11-21T14:54:15.946Z,17.39
2016-11-21T14:55:26.661Z,17.36
2016-11-21T14:56:37.002Z,17.3
2016-11-21T14:57:47.391Z,17.39
2016-11-21T14:58:57.965Z,17.32
2016-11-21T15:00:08.332Z,17.18
2016-11-21T15:01:18.693Z,17.24
2016-11-21T15:02:28.726Z,17.22
2016-11-21T15:03:39.141Z,17.21
2016-11-21T15:04:49.472Z,17.2
2016-11-21T15:05:59.795Z,17.07
2016-11-21T15:07:10.139Z,17.12
2016-11-21T15:08:20.154Z,17.1
2016-11-21T15:09:30.513Z,17.05
2016-11-21T15:10:40.890Z,16.91
2016-11-21T15:11:51.253Z,16.99
2016-11-21T15:13:01.645Z,16.94
2016-11-21T15:14:11.688Z,16.97
2016-11-21T15:15:21.426Z,16.9
2016-11-21T15:16:31.780Z,16.87
2016-11-21T15:17:42.194Z,16.9
2016-11-21T15:18:52.576Z,16.81
2016-11-21T15:20:02.939Z,16.82
2016-11-21T15:21:13.299Z,16.74
2016-11-21T15:22:23.001Z,16.76
2016-11-21T15:23:33.357Z,16.69
2016-11-21T15:24:43.396Z,16.72
2016-11-21T15:25:53.405Z,16.63
2016-11-21T15:27:03.781Z,16.7
2016-11-21T15:28:14.136Z,16.66
2016-11-21T15:29:24.492Z,16.58
2016-11-21T15:30:34.829Z,16.63
2016-11-21T15:31:45.164Z,16.59
2016-11-21T15:32:55.509Z,16.54
2016-11-21T15:34:05.529Z,16.59
2016-11-21T15:35:15.901Z,16.62
2016-11-21T15:36:25.933Z,16.52
2016-11-21T15:37:35.976Z,16.51
2016-11-21T15:38:46.301Z,16.52
2016-11-21T15:39:56.345Z,16.48
2016-11-21T15:41:06.417Z,16.36
2016-11-21T15:42:16.483Z,16.44